Time;durP1;ratioP1;P1;durP2;ratioP2;P2;SDS_P1;SDS_P2;PMS_P1;PMS_P2;Temp;Humidity;BMP_temperature;BMP_pressure;BME280_temperature;BME280_humidity;BME280_pressure;Samples;Min_cycle;Max_cycle;Signal;HPM_P1;HPM_P2
2021/10/29 00:01:31;;;;;;;12.93;8.25;;;;;;;12.88;73.81;100324.66;5057116;28;20060;-62
2021/10/29 00:03:58;;;;;;;13.15;7.50;;;;;;;12.88;74.10;100316.38;5055549;28;20052;-61
2021/10/29 00:06:26;;;;;;;11.27;7.05;;;;;;;13.08;72.79;100312.78;5055733;28;20045;-61
2021/10/29 00:08:55;;;;;;;11.75;7.43;;;;;;;12.86;73.83;100318.66;5056905;28;20404;-61
2021/10/29 00:11:22;;;;;;;17.35;7.13;;;;;;;12.95;73.91;100319.41;5056881;28;20408;-61
2021/10/29 00:13:50;;;;;;;12.02;7.53;;;;;;;13.13;73.09;100307.88;5071805;28;20382;-61
2021/10/29 00:16:17;;;;;;;15.15;7.82;;;;;;;12.93;73.45;100305.94;5057004;28;20037;-60
2021/10/29 00:18:44;;;;;;;11.02;6.90;;;;;;;13.07;72.91;100316.72;5054778;28;20049;-61
2021/10/29 00:21:12;;;;;;;15.88;7.82;;;;;;;13.13;72.57;100310.63;5056665;28;20053;-61
2021/10/29 00:23:39;;;;;;;19.00;7.60;;;;;;;13.04;72.81;100307.13;5057213;28;20048;-61
2021/10/29 00:26:06;;;;;;;17.92;7.65;;;;;;;13.05;72.83;100308.78;5056539;28;20049;-61
2021/10/29 00:28:34;;;;;;;18.25;7.70;;;;;;;13.10;72.74;100302.19;5055224;28;20048;-61
2021/10/29 00:31:01;;;;;;;11.55;7.20;;;;;;;12.60;74.38;100301.47;5055363;28;20052;-61
2021/10/29 00:33:28;;;;;;;11.10;7.13;;;;;;;12.54;75.31;100302.81;5056758;28;20064;-61
2021/10/29 00:35:56;;;;;;;20.65;7.85;;;;;;;12.54;75.10;100306.41;5056375;28;20082;-61
2021/10/29 00:38:23;;;;;;;14.02;7.22;;;;;;;12.86;74.25;100296.56;5071377;28;20045;-61
2021/10/29 00:40:51;;;;;;;13.35;7.13;;;;;;;12.81;74.00;100288.47;5034892;28;20056;-61
2021/10/29 00:43:19;;;;;;;13.98;7.00;;;;;;;12.60;74.79;100284.91;5034481;28;20050;-61
2021/10/29 00:45:47;;;;;;;17.45;7.53;;;;;;;12.65;75.00;100293.81;5051335;28;20052;-61
2021/10/29 00:48:15;;;;;;;15.85;7.95;;;;;;;12.77;74.28;100288.34;5036211;28;20053;-60
2021/10/29 00:50:42;;;;;;;15.23;8.13;;;;;;;12.77;74.27;100291.09;5034941;28;20058;-61
2021/10/29 00:53:10;;;;;;;28.42;9.70;;;;;;;12.61;74.38;100283.75;5034583;28;20049;-64
2021/10/29 00:55:38;;;;;;;21.38;8.93;;;;;;;12.58;74.98;100287.19;5035101;28;20045;-61
2021/10/29 00:58:05;;;;;;;20.63;9.13;;;;;;;12.70;74.65;100285.31;5034124;28;20057;-62
2021/10/29 01:00:33;;;;;;;15.00;8.57;;;;;;;12.96;73.89;100276.78;5036004;28;20061;-60
2021/10/29 01:03:00;;;;;;;11.85;7.78;;;;;;;12.70;74.09;100277.00;5035858;28;20046;-60
2021/10/29 01:05:28;;;;;;;13.80;7.13;;;;;;;12.63;74.75;100276.75;5035890;28;20061;-61
2021/10/29 01:07:57;;;;;;;13.95;7.63;;;;;;;12.58;74.64;100279.72;5035790;28;20120;-61
2021/10/29 01:10:29;;;;;;;16.48;7.93;;;;;;;12.48;75.08;100275.41;5034516;28;20041;-61
2021/10/29 01:12:56;;;;;;;13.80;7.55;;;;;;;12.35;75.64;100278.44;5035418;28;20069;-60
2021/10/29 01:15:24;;;;;;;12.15;7.57;;;;;;;12.55;75.48;100261.06;5036349;28;20057;-61
2021/10/29 01:17:51;;;;;;;14.45;7.30;;;;;;;12.77;74.20;100262.66;5035742;28;20501;-61
2021/10/29 01:20:22;;;;;;;10.85;7.10;;;;;;;12.52;75.10;100267.25;5035485;28;20053;-61
2021/10/29 01:22:51;;;;;;;11.75;6.90;;;;;;;12.49;75.12;100256.88;5036583;28;20069;-62
2021/10/29 01:25:19;;;;;;;13.30;7.20;;;;;;;12.54;74.97;100256.66;5035286;28;20064;-61
2021/10/29 01:27:47;;;;;;;11.40;7.28;;;;;;;12.44;75.24;100252.38;5033866;28;20058;-60
2021/10/29 01:30:15;;;;;;;11.85;6.65;;;;;;;12.67;75.08;100250.06;5035193;28;20053;-60
2021/10/29 01:32:44;;;;;;;13.63;7.35;;;;;;;12.51;74.95;100251.00;5035698;28;20046;-60
2021/10/29 01:35:14;;;;;;;12.88;7.57;;;;;;;12.59;74.65;100250.94;5035698;28;20049;-60
2021/10/29 01:37:43;;;;;;;16.30;7.57;;;;;;;12.48;74.95;100248.94;5035440;28;20056;-61
2021/10/29 01:40:15;;;;;;;14.68;7.20;;;;;;;12.26;76.01;100245.34;5064279;28;20044;-60
2021/10/29 01:42:43;;;;;;;13.40;7.85;;;;;;;12.49;75.28;100237.53;5075286;28;20523;-60
2021/10/29 01:45:10;;;;;;;10.40;7.07;;;;;;;12.42;75.09;100237.28;5075332;28;20041;-61
2021/10/29 01:47:37;;;;;;;15.25;7.47;;;;;;;12.15;76.39;100238.59;5075302;28;20052;-61
2021/10/29 01:50:07;;;;;;;15.57;7.13;;;;;;;12.22;76.28;100236.09;5074910;28;20053;-61
2021/10/29 01:52:35;;;;;;;14.35;7.45;;;;;;;12.50;75.64;100236.38;5073968;28;20500;-60
2021/10/29 01:55:04;;;;;;;13.82;6.70;;;;;;;12.41;75.01;100230.94;5075163;28;20063;-60
2021/10/29 01:57:31;;;;;;;14.00;7.10;;;;;;;12.28;76.10;100228.44;5075035;28;20404;-61
2021/10/29 01:59:59;;;;;;;12.95;7.53;;;;;;;12.28;75.92;100220.97;5057491;28;20041;-62
2021/10/29 02:02:26;;;;;;;14.82;7.07;;;;;;;12.04;76.69;100214.50;5055412;28;20071;-61
2021/10/29 02:04:53;;;;;;;10.98;7.20;;;;;;;12.06;76.96;100213.03;5053730;28;20056;-61
2021/10/29 02:07:20;;;;;;;10.63;6.90;;;;;;;12.22;75.76;100211.25;5053197;28;20072;-61
2021/10/29 02:09:48;;;;;;;10.93;6.68;;;;;;;12.35;75.38;100207.44;5055896;28;20061;-61
2021/10/29 02:12:15;;;;;;;13.57;8.00;;;;;;;12.45;75.03;100211.72;5058849;28;20044;-61
2021/10/29 02:14:42;;;;;;;10.82;6.97;;;;;;;12.37;75.15;100201.56;5041403;28;20060;-60
2021/10/29 02:17:10;;;;;;;16.02;8.68;;;;;;;12.18;75.72;100206.75;5058969;28;20064;-60
2021/10/29 02:19:38;;;;;;;25.02;13.45;;;;;;;12.12;75.99;100202.56;5057410;28;20055;-61
2021/10/29 02:22:05;;;;;;;32.25;17.10;;;;;;;12.28;75.59;100196.13;5057455;28;20432;-61
2021/10/29 02:24:34;;;;;;;22.42;13.10;;;;;;;12.31;75.46;100187.16;5057580;28;20334;-61
2021/10/29 02:27:02;;;;;;;16.33;9.27;;;;;;;12.27;75.40;100196.47;5058492;28;20045;-61
2021/10/29 02:29:30;;;;;;;16.38;8.25;;;;;;;12.03;76.22;100186.06;5058997;28;20061;-60
2021/10/29 02:31:58;;;;;;;10.77;7.53;;;;;;;12.04;76.37;100186.88;5057449;28;20053;-61
2021/10/29 02:34:25;;;;;;;14.90;7.47;;;;;;;12.22;75.80;100188.38;5059603;28;20057;-61
2021/10/29 02:36:52;;;;;;;14.55;7.07;;;;;;;12.11;75.91;100185.22;5058600;28;20067;-61
2021/10/29 02:39:20;;;;;;;10.50;6.35;;;;;;;12.22;75.68;100183.66;5066074;28;20404;-60
2021/10/29 02:41:47;;;;;;;12.23;6.90;;;;;;;12.22;75.44;100178.13;5077418;28;20403;-61
2021/10/29 02:44:14;;;;;;;11.93;7.35;;;;;;;12.19;75.62;100178.00;5078806;28;20063;-64
2021/10/29 02:46:42;;;;;;;12.10;6.97;;;;;;;12.08;75.95;100180.34;5078380;28;20048;-61
2021/10/29 02:49:09;;;;;;;12.40;6.78;;;;;;;11.91;76.18;100171.38;5078062;28;20052;-61
2021/10/29 02:51:37;;;;;;;14.32;6.93;;;;;;;11.82;76.79;100165.13;5082608;28;20048;-65
2021/10/29 02:54:04;;;;;;;13.02;7.03;;;;;;;12.13;75.65;100171.06;5078067;28;20048;-61
2021/10/29 02:56:32;;;;;;;11.32;6.97;;;;;;;12.11;75.48;100159.56;5078132;28;20049;-61
2021/10/29 02:58:59;;;;;;;12.60;5.80;;;;;;;11.99;75.19;100157.53;5078500;28;20052;-60
2021/10/29 03:01:26;;;;;;;12.30;6.22;;;;;;;12.05;75.53;100161.69;5078602;28;20056;-63
2021/10/29 03:03:54;;;;;;;15.30;6.22;;;;;;;12.01;75.11;100151.69;5078024;28;20056;-61
2021/10/29 03:06:21;;;;;;;16.27;6.10;;;;;;;11.99;74.67;100148.44;5078234;28;20052;-61
2021/10/29 03:08:48;;;;;;;13.60;6.40;;;;;;;11.73;75.81;100145.88;5076551;28;20052;-64
2021/10/29 03:11:15;;;;;;;11.23;6.15;;;;;;;11.75;76.00;100138.06;5078006;28;20048;-61
2021/10/29 03:13:43;;;;;;;12.07;6.35;;;;;;;11.69;76.01;100144.94;5077645;28;20056;-62
2021/10/29 03:16:10;;;;;;;12.10;5.80;;;;;;;11.89;75.12;100135.06;5077483;28;20051;-61
2021/10/29 03:18:38;;;;;;;11.55;5.88;;;;;;;11.76;75.38;100128.66;5077733;28;20060;-63
2021/10/29 03:21:05;;;;;;;9.93;5.78;;;;;;;11.93;75.35;100130.47;5078183;28;20060;-61
2021/10/29 03:23:33;;;;;;;14.13;5.78;;;;;;;12.04;74.72;100118.69;5077940;28;20044;-61
2021/10/29 03:26:00;;;;;;;13.05;6.32;;;;;;;12.09;73.82;100112.16;5077382;28;20044;-61
2021/10/29 03:28:27;;;;;;;12.20;5.85;;;;;;;12.03;74.09;100111.53;5077309;28;20435;-63
2021/10/29 03:30:55;;;;;;;12.20;6.25;;;;;;;11.97;73.99;100101.88;5077744;28;20052;-61
2021/10/29 03:33:23;;;;;;;14.95;6.57;;;;;;;11.77;75.04;100101.88;5077643;28;20060;-61
2021/10/29 03:35:50;;;;;;;10.75;5.50;;;;;;;11.73;75.14;100101.75;5059668;28;20060;-60
2021/10/29 03:38:41;;;;;;;11.48;5.97;;;;;;;11.61;75.57;100111.84;5077448;28;20044;-61
2021/10/29 03:41:08;;;;;;;11.45;6.18;;;;;;;11.39;76.74;100104.69;5036128;28;20136;-61
2021/10/29 03:43:45;;;;;;;13.85;6.60;;;;;;;11.23;77.32;100107.19;5037252;28;20057;-62
2021/10/29 03:46:18;;;;;;;10.00;5.90;;;;;;;11.38;77.51;100095.59;5035784;28;20038;-60
2021/10/29 03:51:34;;;;;;;10.57;5.90;;;;;;;11.41;76.72;100098.81;5035700;28;20056;-63
2021/10/29 03:56:40;;;;;;;12.45;5.82;;;;;;;11.89;74.93;100090.91;5054801;28;20049;-61
2021/10/29 03:59:10;;;;;;;12.93;5.63;;;;;;;11.58;75.80;100091.25;5055668;28;20404;-61
2021/10/29 04:01:38;;;;;;;13.40;5.93;;;;;;;11.89;74.79;100090.91;5047563;28;20041;-60
2021/10/29 04:04:05;;;;;;;12.55;5.50;;;;;;;11.76;74.74;100090.03;5052201;28;20053;-60
2021/10/29 04:06:33;;;;;;;11.05;5.75;;;;;;;11.80;75.23;100081.88;5035573;28;20049;-61
2021/10/29 04:09:00;;;;;;;11.35;5.47;;;;;;;11.72;75.11;100071.69;5036836;28;20053;-61
2021/10/29 04:11:33;;;;;;;8.88;5.55;;;;;;;11.87;74.69;100073.88;5052171;28;20136;-60
2021/10/29 04:14:01;;;;;;;12.70;6.22;;;;;;;11.91;74.49;100066.50;5036768;28;20053;-60
2021/10/29 04:16:31;;;;;;;9.30;5.70;;;;;;;11.82;74.49;100065.81;5036421;28;20046;-61
2021/10/29 04:18:59;;;;;;;10.43;5.53;;;;;;;11.91;74.32;100063.75;5036791;28;20056;-61
2021/10/29 04:21:26;;;;;;;13.82;5.70;;;;;;;11.81;74.92;100058.66;5036777;28;20549;-61
2021/10/29 04:23:53;;;;;;;10.45;5.82;;;;;;;11.64;75.61;100048.56;5036763;28;20049;-61
2021/10/29 04:26:21;;;;;;;10.38;5.28;;;;;;;11.65;75.55;100044.66;5036382;28;20049;-60
2021/10/29 04:28:52;;;;;;;13.82;5.57;;;;;;;11.43;76.38;100050.50;5036318;28;20050;-61
2021/10/29 04:31:20;;;;;;;10.50;5.65;;;;;;;11.51;76.49;100043.28;5036369;28;20638;-61
2021/10/29 04:33:49;;;;;;;9.95;5.30;;;;;;;11.55;76.18;100047.78;5034134;28;20057;-60
2021/10/29 04:36:17;;;;;;;12.40;5.40;;;;;;;11.62;76.02;100042.56;5051332;28;20054;-62
2021/10/29 04:38:46;;;;;;;9.98;5.70;;;;;;;11.87;75.74;100047.06;5041840;28;20075;-60
2021/10/29 04:41:15;;;;;;;11.23;5.33;;;;;;;11.82;75.44;100050.03;5074846;28;20060;-62
2021/10/29 04:43:42;;;;;;;13.10;5.13;;;;;;;11.59;75.98;100047.94;5075969;28;20298;-62
2021/10/29 04:46:10;;;;;;;19.15;5.72;;;;;;;11.74;75.54;100045.41;5075614;28;20051;-61
2021/10/29 04:48:37;;;;;;;12.73;5.40;;;;;;;11.67;76.19;100036.84;5075977;28;20072;-60
2021/10/29 04:51:05;;;;;;;12.75;5.72;;;;;;;11.80;75.55;100038.53;5076190;28;20052;-62
2021/10/29 04:53:32;;;;;;;9.63;5.68;;;;;;;11.74;75.67;100037.13;5076121;28;20051;-62
2021/10/29 04:55:59;;;;;;;12.05;5.60;;;;;;;11.84;75.61;100042.22;5075593;28;20052;-60
2021/10/29 04:58:26;;;;;;;13.60;6.03;;;;;;;11.81;75.35;100039.34;5075627;28;20083;-60
2021/10/29 05:00:54;;;;;;;13.77;5.65;;;;;;;11.59;76.24;100028.63;5075732;28;20051;-61
2021/10/29 05:03:21;;;;;;;10.85;6.00;;;;;;;11.60;76.78;100030.22;5076419;28;20063;-61
2021/10/29 05:05:49;;;;;;;11.07;5.97;;;;;;;11.72;76.59;100020.09;5075528;28;20059;-60
2021/10/29 05:08:16;;;;;;;13.60;5.65;;;;;;;11.60;76.50;100024.72;5074308;28;20052;-61
2021/10/29 05:10:43;;;;;;;13.23;6.18;;;;;;;11.66;76.76;100015.13;5075574;28;20053;-60
2021/10/29 05:13:11;;;;;;;11.73;5.57;;;;;;;11.67;76.45;100019.50;5056944;28;20052;-60
2021/10/29 05:15:38;;;;;;;9.80;5.45;;;;;;;11.59;77.06;100018.41;5074116;28;20052;-60
2021/10/29 05:18:05;;;;;;;11.45;5.95;;;;;;;11.61;76.97;100015.31;5074296;28;20059;-61
2021/10/29 05:20:33;;;;;;;12.63;6.10;;;;;;;11.69;76.43;100011.69;5075503;28;20140;-60
2021/10/29 05:23:00;;;;;;;9.77;5.55;;;;;;;11.97;75.99;100019.06;5075508;28;20048;-61
2021/10/29 05:25:27;;;;;;;11.35;5.30;;;;;;;12.08;75.35;100011.97;5056999;28;20048;-60
2021/10/29 05:27:54;;;;;;;11.52;5.47;;;;;;;11.78;76.13;100010.47;5057682;28;20079;-61
2021/10/29 05:30:22;;;;;;;12.68;5.78;;;;;;;11.83;76.20;100006.69;5074128;28;20522;-61
2021/10/29 05:32:49;;;;;;;11.88;5.95;;;;;;;12.02;75.80;99996.78;5075412;28;20044;-59
2021/10/29 05:35:16;;;;;;;11.88;5.68;;;;;;;12.00;75.55;99995.47;5075248;28;20507;-61
2021/10/29 05:37:43;;;;;;;16.30;6.55;;;;;;;11.98;75.49;100006.88;5061152;28;20068;-60
2021/10/29 05:40:11;;;;;;;16.73;6.10;;;;;;;12.06;75.45;100000.47;5064616;28;20045;-61
2021/10/29 05:42:39;;;;;;;11.38;6.20;;;;;;;12.30;74.63;100002.47;5067513;28;20056;-60
2021/10/29 05:45:08;;;;;;;9.85;6.47;;;;;;;11.97;75.39;99994.22;5054376;28;20045;-63
2021/10/29 05:47:37;;;;;;;12.73;6.18;;;;;;;12.09;75.37;100001.72;5055176;28;20091;-61
2021/10/29 05:50:09;;;;;;;14.65;6.45;;;;;;;12.13;75.05;99994.38;5055552;28;20056;-61
2021/10/29 05:52:40;;;;;;;15.27;6.13;;;;;;;12.34;74.24;99995.13;5072731;28;20060;-60
2021/10/29 05:57:43;;;;;;;8.93;5.10;;;;;;;12.19;74.10;99981.97;5051710;28;20464;-62
2021/10/29 06:00:12;;;;;;;10.93;5.57;;;;;;;11.98;74.90;99972.94;5052109;28;20523;-61
2021/10/29 06:02:39;;;;;;;12.05;5.90;;;;;;;12.03;75.11;99972.75;5054709;28;20049;-61
2021/10/29 06:05:07;;;;;;;10.07;5.57;;;;;;;12.18;74.59;99972.09;5054159;28;20072;-61
2021/10/29 06:07:36;;;;;;;10.90;5.47;;;;;;;12.27;74.07;99970.03;5052667;28;20045;-61
2021/10/29 06:10:09;;;;;;;11.43;5.75;;;;;;;12.04;75.05;99977.09;5053077;28;20128;-61
2021/10/29 06:12:38;;;;;;;11.98;5.88;;;;;;;11.84;75.81;99975.19;5053335;28;20061;-62
2021/10/29 06:15:06;;;;;;;12.32;5.38;;;;;;;11.92;77.61;99969.59;5053555;28;20516;-64
2021/10/29 06:17:34;;;;;;;14.82;5.95;;;;;;;12.38;78.69;99966.47;5049666;28;20064;-62
2021/10/29 06:20:03;;;;;;;13.75;6.15;;;;;;;12.57;76.42;99967.88;5046321;28;20052;-64
2021/10/29 06:22:34;;;;;;;15.48;5.70;;;;;;;12.85;74.98;99957.75;5043564;28;20172;-62
2021/10/29 06:25:10;;;;;;;10.82;5.50;;;;;;;12.94;72.34;99958.41;5031196;28;20068;-62
2021/10/29 06:30:06;;;;;;;9.32;4.65;;;;;;;14.34;65.43;99950.66;5038349;28;20061;-66
2021/10/29 06:32:36;;;;;;;11.05;5.05;;;;;;;13.23;69.48;99949.88;5043583;28;20064;-67
2021/10/29 06:35:04;;;;;;;11.30;5.43;;;;;;;13.13;70.47;99958.63;5041802;28;20128;-65
2021/10/29 06:37:31;;;;;;;10.55;4.43;;;;;;;12.99;71.35;99956.22;5037738;28;20255;-67
2021/10/29 06:39:59;;;;;;;9.55;4.57;;;;;;;13.00;71.25;99960.59;5023692;28;20584;-65
2021/10/29 06:42:31;;;;;;;13.38;5.05;;;;;;;12.86;71.67;99953.81;5038433;28;20524;-65
2021/10/29 06:45:16;;;;;;;14.57;4.28;;;;;;;13.12;71.36;99955.09;5055594;28;20531;-67
2021/10/29 06:48:31;;;;;;;10.57;4.50;;;;;;;13.23;70.80;99947.13;5047689;28;20445;-66
2021/10/29 07:02:06;;;;;;;13.23;5.10;;;;;;;13.32;70.04;99959.63;5060534;28;20064;-68
2021/10/29 07:40:47;;;;;;;12.27;4.07;;;;;;;14.06;67.74;99950.69;5059766;28;20059;-65
2021/10/29 07:43:39;;;;;;;11.65;4.22;;;;;;;13.78;68.10;99960.16;5077011;28;20475;-66
2021/10/29 07:46:04;;;;;;;9.43;4.18;;;;;;;13.88;68.18;99965.22;5062281;28;20053;-66
2021/10/29 07:48:33;;;;;;;10.20;3.53;;;;;;;13.97;67.99;99963.06;5066380;28;20056;-66
2021/10/29 07:51:02;;;;;;;9.75;3.97;;;;;;;14.00;67.73;99959.63;5038574;28;20056;-65
2021/10/29 07:53:30;;;;;;;8.13;3.97;;;;;;;14.03;68.10;99969.97;5038711;28;20053;-67
2021/10/29 07:56:01;;;;;;;9.93;3.97;;;;;;;13.90;67.99;99974.75;5057035;28;20044;-66
2021/10/29 07:58:30;;;;;;;12.32;4.38;;;;;;;13.99;67.86;99972.63;5055084;28;20064;-66
2021/10/29 08:00:59;;;;;;;9.63;4.07;;;;;;;14.17;67.62;99971.16;5036185;28;20053;-65
2021/10/29 08:03:28;;;;;;;16.80;4.80;;;;;;;14.37;66.97;99974.84;5036474;28;20060;-65
2021/10/29 08:05:58;;;;;;;13.50;4.30;;;;;;;14.59;66.17;99980.59;5052774;28;20080;-66
2021/10/29 08:08:33;;;;;;;12.43;4.15;;;;;;;14.42;66.08;99974.59;5053009;28;20061;-66
2021/10/29 08:11:01;;;;;;;9.35;4.68;;;;;;;14.48;66.08;99981.50;5057083;28;20045;-65
2021/10/29 08:13:38;;;;;;;11.75;4.00;;;;;;;14.77;65.57;99981.03;5054315;28;20045;-67
2021/10/29 08:16:05;;;;;;;11.18;3.65;;;;;;;14.66;65.36;99977.22;5054757;28;20080;-65
2021/10/29 08:18:40;;;;;;;17.20;4.68;;;;;;;14.62;65.68;99993.75;5054993;28;20056;-66
2021/10/29 08:21:07;;;;;;;10.45;3.72;;;;;;;14.61;65.58;99983.81;5055181;28;20049;-67
2021/10/29 08:23:41;;;;;;;13.35;3.33;;;;;;;14.50;65.97;99977.22;5054034;28;20602;-66
2021/10/29 08:26:13;;;;;;;8.32;3.90;;;;;;;14.58;65.85;99983.72;5054377;28;20057;-65
2021/10/29 08:28:41;;;;;;;12.20;3.50;;;;;;;14.58;65.64;99983.72;5054081;28;20049;-66
2021/10/29 08:31:09;;;;;;;7.90;3.42;;;;;;;14.75;65.72;99988.13;5046205;28;20061;-66
2021/10/29 08:33:38;;;;;;;8.20;3.20;;;;;;;14.83;65.09;99981.56;5051624;28;20056;-66
2021/10/29 08:36:05;;;;;;;10.48;3.38;;;;;;;14.84;65.13;99988.72;5055528;28;20732;-67
2021/10/29 08:38:33;;;;;;;9.38;3.33;;;;;;;14.84;65.15;99992.28;5055281;28;20048;-66
2021/10/29 08:41:21;;;;;;;11.18;3.60;;;;;;;14.86;64.88;100000.25;5054180;28;20057;-66
2021/10/29 08:43:48;;;;;;;13.63;3.20;;;;;;;14.95;65.03;100000.88;5054448;28;20436;-65
2021/10/29 08:46:16;;;;;;;10.48;3.88;;;;;;;14.94;64.57;99990.94;5054546;28;20416;-66
2021/10/29 08:48:44;;;;;;;7.65;3.15;;;;;;;15.12;64.28;99992.97;5052617;28;20029;-67
2021/10/29 08:51:12;;;;;;;8.52;3.55;;;;;;;15.28;64.06;99999.28;5060628;28;20049;-66
2021/10/29 08:53:39;;;;;;;11.27;2.97;;;;;;;15.22;64.11;99988.84;5050174;28;20052;-66
2021/10/29 08:56:07;;;;;;;7.47;2.95;;;;;;;15.22;64.68;99986.06;5048916;28;20041;-65
2021/10/29 08:59:09;;;;;;;9.18;3.20;;;;;;;15.33;64.53;99985.13;5053813;28;20041;-67
2021/10/29 09:01:58;;;;;;;8.60;3.55;;;;;;;15.51;63.58;99983.59;5054634;28;20515;-67
2021/10/29 09:07:36;;;;;;;11.00;3.65;;;;;;;15.39;63.28;99986.47;5054524;28;20152;-67
2021/10/29 09:32:59;;;;;;;10.38;2.85;;;;;;;15.77;62.71;99989.31;5054943;28;20495;-66
2021/10/29 09:35:33;;;;;;;7.05;2.72;;;;;;;15.92;62.37;99992.38;5055123;28;20068;-66
2021/10/29 09:38:04;;;;;;;8.20;3.20;;;;;;;16.08;62.16;99987.50;5055471;28;20045;-67
2021/10/29 09:41:06;;;;;;;8.27;3.20;;;;;;;16.15;61.72;99990.41;5052740;28;20091;-67
2021/10/29 09:44:04;;;;;;;9.18;3.55;;;;;;;16.30;61.24;99987.53;5053230;28;20056;-67
2021/10/29 09:46:59;;;;;;;8.85;3.00;;;;;;;16.28;61.56;99978.78;5053829;28;20075;-66
2021/10/29 09:49:35;;;;;;;15.75;3.63;;;;;;;16.19;61.71;99982.97;5050555;28;20061;-65
2021/10/29 09:53:01;;;;;;;9.07;3.17;;;;;;;16.13;61.86;100001.09;5054275;28;20053;-65
2021/10/29 09:54:59;;;;;;;11.88;3.05;;;;;;;16.34;61.79;99993.16;5048693;28;20061;-66
2021/10/29 09:57:30;;;;;;;6.88;2.90;;;;;;;16.41;61.37;99996.88;5047826;28;20419;-66
2021/10/29 10:00:00;;;;;;;9.25;3.00;;;;;;;16.54;61.48;99995.56;5063586;28;20052;-68
2021/10/29 10:02:29;;;;;;;12.90;2.80;;;;;;;16.59;61.65;100005.56;5058906;28;20056;-69
2021/10/29 10:04:59;;;;;;;11.52;3.22;;;;;;;16.45;62.33;100003.31;5062805;28;20071;-68
2021/10/29 10:07:33;;;;;;;9.95;3.88;;;;;;;16.64;62.87;100008.03;5054062;28;20060;-67
2021/10/29 10:10:02;;;;;;;8.48;3.78;;;;;;;16.56;63.10;100015.44;5052454;28;20064;-66
2021/10/29 10:12:33;;;;;;;10.27;3.65;;;;;;;16.41;63.92;100016.34;5036700;28;20057;-68
2021/10/29 10:15:02;;;;;;;10.95;3.60;;;;;;;16.38;64.44;100022.66;5050041;28;20061;-63
2021/10/29 10:17:30;;;;;;;10.73;3.83;;;;;;;16.41;64.78;100021.09;5046706;28;20060;-67
2021/10/29 10:20:03;;;;;;;11.70;6.72;;;;;;;16.40;65.01;100020.31;5053494;28;20535;-67
2021/10/29 10:22:39;;;;;;;12.32;4.80;;;;;;;16.67;64.93;100022.00;5043654;28;20056;-67
2021/10/29 10:47:06;;;;;;;15.40;6.82;;;;;;;15.81;71.69;100019.91;5056229;28;20040;-67
2021/10/29 10:49:41;;;;;;;9.70;4.85;;;;;;;15.83;71.81;100025.09;5057639;28;20044;-66
2021/10/29 10:52:19;;;;;;;8.55;4.30;;;;;;;15.71;72.64;100032.41;5025431;28;20061;-67
2021/10/29 10:54:50;;;;;;;13.35;4.50;;;;;;;15.65;73.06;100050.53;5055922;28;20049;-67
2021/10/29 10:57:31;;;;;;;16.40;11.00;;;;;;;15.65;73.54;100050.53;5044251;28;20425;-66
2021/10/29 11:02:55;;;;;;;13.90;6.55;;;;;;;15.57;74.50;100043.19;5049136;28;20060;-66
2021/10/29 11:10:59;;;;;;;11.87;5.50;;;;;;;15.52;76.31;100034.34;5043777;28;20423;-67
2021/10/29 11:13:46;;;;;;;13.32;5.30;;;;;;;15.63;76.17;100022.31;5053679;28;20057;-66
2021/10/29 11:16:38;;;;;;;12.40;5.80;;;;;;;15.46;77.21;100027.47;5056900;28;20064;-66
2021/10/29 11:19:16;;;;;;;13.32;6.15;;;;;;;15.29;77.92;100019.53;5057099;28;20045;-63
2021/10/29 11:21:51;;;;;;;24.02;13.75;;;;;;;15.23;78.68;100016.22;5057044;28;20053;-66
2021/10/29 11:24:40;;;;;;;20.10;9.95;;;;;;;15.30;78.37;100004.47;5056236;28;20056;-62
2021/10/29 11:27:12;;;;;;;12.52;6.72;;;;;;;15.49;78.03;100008.13;5048445;28;20044;-62
2021/10/29 11:29:51;;;;;;;12.38;5.90;;;;;;;15.62;77.28;100000.47;5056754;28;20041;-63
2021/10/29 11:32:20;;;;;;;12.95;4.95;;;;;;;15.52;77.48;100001.84;5037744;28;20053;-66
2021/10/29 11:35:01;;;;;;;12.30;4.88;;;;;;;15.43;77.83;99992.91;5036059;28;20060;-65
2021/10/29 11:37:32;;;;;;;12.43;5.25;;;;;;;15.71;77.33;99990.75;5071720;28;20072;-64
2021/10/29 11:40:00;;;;;;;11.65;5.20;;;;;;;15.69;76.91;99984.75;5070609;28;20483;-66
2021/10/29 11:42:29;;;;;;;11.48;5.30;;;;;;;15.72;77.01;99981.28;5067599;28;20060;-65
2021/10/29 11:45:01;;;;;;;14.38;4.95;;;;;;;15.83;76.38;99986.22;5056507;28;20380;-65
2021/10/29 11:47:29;;;;;;;11.63;4.25;;;;;;;15.83;75.85;99977.91;5055071;28;20416;-66
2021/10/29 11:50:12;;;;;;;11.30;5.25;;;;;;;15.82;75.84;99977.09;5056279;28;20048;-67
2021/10/29 11:52:41;;;;;;;9.32;4.45;;;;;;;15.60;76.81;99973.06;5054900;28;20055;-64
2021/10/29 11:55:20;;;;;;;10.48;5.20;;;;;;;15.74;76.63;99976.13;5054671;28;20064;-66
2021/10/29 11:57:57;;;;;;;13.45;6.68;;;;;;;15.84;75.74;99974.75;5055575;28;20059;-66
2021/10/29 12:00:46;;;;;;;15.88;10.75;;;;;;;15.99;75.60;99967.50;5054629;28;20052;-66
2021/10/29 12:08:28;;;;;;;13.60;7.97;;;;;;;15.91;76.34;99971.31;5056778;28;20049;-69
2021/10/29 12:10:59;;;;;;;10.02;5.30;;;;;;;15.87;76.61;99967.63;5063910;28;20049;-68
2021/10/29 12:13:28;;;;;;;14.88;5.13;;;;;;;15.93;76.26;99969.78;5056295;28;20056;-69
2021/10/29 12:15:55;;;;;;;11.85;4.90;;;;;;;15.94;75.79;99963.03;5036172;28;20053;-69
2021/10/29 12:18:25;;;;;;;9.68;4.70;;;;;;;15.94;75.82;99974.16;5051488;28;20061;-69
2021/10/29 12:20:53;;;;;;;18.90;10.65;;;;;;;16.13;75.12;99956.63;5047131;28;20050;-69
2021/10/29 12:23:25;;;;;;;15.15;7.90;;;;;;;16.28;74.95;99958.53;5056903;28;20053;-69
2021/10/29 12:26:04;;;;;;;10.30;5.65;;;;;;;16.28;74.40;99962.13;5059744;28;20056;-69
2021/10/29 12:31:10;;;;;;;10.45;4.82;;;;;;;16.43;74.00;99961.19;5056413;28;20044;-68
2021/10/29 12:34:10;;;;;;;9.68;4.78;;;;;;;16.62;73.55;99957.56;5056548;28;20052;-67
2021/10/29 12:53:56;;;;;;;9.70;4.43;;;;;;;16.88;71.00;99927.78;5054549;28;20057;-68
2021/10/29 13:01:50;;;;;;;;;;;;;;;17.12;69.32;99909.84;5065763;28;20045;-67
2021/10/29 13:04:23;;;;;;;11.25;4.72;;;;;;;17.09;69.54;99912.56;5056669;28;19927;-69
2021/10/29 13:06:52;;;;;;;8.00;4.75;;;;;;;17.02;69.34;99929.97;5055172;28;20063;-67
2021/10/29 13:09:25;;;;;;;12.02;4.10;;;;;;;17.07;69.15;99940.00;5055380;28;20068;-69
2021/10/29 13:12:00;;;;;;;11.80;4.60;;;;;;;17.07;69.38;99943.56;5083262;28;20053;-69
2021/10/29 13:14:36;;;;;;;9.20;4.40;;;;;;;16.96;69.58;99942.63;5055488;28;20049;-69
2021/10/29 13:17:07;;;;;;;10.10;4.60;;;;;;;17.03;69.67;99939.13;5054061;28;20053;-66
2021/10/29 13:50:58;;;;;;;12.85;4.25;;;;;;;16.86;69.63;99960.72;5034804;28;20049;-68
2021/10/29 13:56:16;;;;;;;9.93;3.75;;;;;;;16.58;71.37;99965.84;5052722;28;20057;-70
2021/10/29 14:01:57;;;;;;;9.10;4.40;;;;;;;16.43;72.79;99977.88;5053772;28;19927;-69
2021/10/29 14:34:37;;;;;;;9.73;4.00;;;;;;;16.07;76.05;99988.69;5058011;28;20057;-69
2021/10/29 14:42:17;;;;;;;12.07;4.80;;;;;;;15.90;78.32;99994.69;5057433;28;20045;-68
2021/10/29 14:47:31;;;;;;;13.25;6.00;;;;;;;15.65;79.80;100005.28;5057707;28;20155;-67
2021/10/29 15:31:10;;;;;;;10.68;6.40;;;;;;;15.39;83.13;99997.56;5054521;28;19927;-69
2021/10/29 15:44:06;;;;;;;9.80;4.90;;;;;;;15.40;83.04;100006.72;5056645;28;20057;-68
2021/10/29 15:51:46;;;;;;;9.40;4.75;;;;;;;15.56;82.39;100015.81;5055241;28;20052;-68
2021/10/29 15:54:13;;;;;;;15.60;8.77;;;;;;;15.67;81.96;100016.84;5055881;28;20045;-68
2021/10/29 16:02:17;;;;;;;12.05;7.93;;;;;;;15.40;83.29;99999.19;5054947;28;20041;-67
2021/10/29 16:18:35;;;;;;;12.20;6.82;;;;;;;15.37;84.74;100005.44;5067666;28;20057;-69
2021/10/29 16:21:02;;;;;;;10.48;6.32;;;;;;;15.25;84.92;100007.53;5069785;28;20040;-71
2021/10/29 16:23:30;;;;;;;10.77;6.07;;;;;;;15.45;83.95;99996.13;5051307;28;20051;-69
2021/10/29 16:26:06;;;;;;;12.82;6.07;;;;;;;15.59;83.74;99995.63;5036458;28;20076;-62
2021/10/29 16:28:35;;;;;;;10.40;5.90;;;;;;;15.48;83.36;99997.38;5055002;28;20053;-68
2021/10/29 16:31:03;;;;;;;11.05;6.78;;;;;;;15.49;83.21;99996.22;5055857;28;20063;-65
2021/10/29 16:33:33;;;;;;;12.02;6.45;;;;;;;15.40;83.31;99995.59;5056536;28;20052;-67